Time;durP1;ratioP1;P1;durP2;ratioP2;P2;SDS_P1;SDS_P2;PMS_P1;PMS_P2;Temp;Humidity;BMP_temperature;BMP_pressure;BME280_temperature;BME280_humidity;BME280_pressure;Samples;Min_cycle;Max_cycle;Signal;HPM_P1;HPM_P2
2023/12/29 00:01:59;;;;;;;6.28;1.90;;;13.00;70.30;;;;;;5054319;28;20024;-64
2023/12/29 00:04:28;;;;;;;9.05;2.15;;;13.00;70.30;;;;;;5055736;28;20356;-64
2023/12/29 00:06:54;;;;;;;9.05;2.20;;;13.00;70.30;;;;;;5046585;28;20040;-64
2023/12/29 00:09:19;;;;;;;5.13;1.73;;;13.00;70.20;;;;;;5055301;28;20029;-64
2023/12/29 00:11:50;;;;;;;8.30;2.20;;;13.00;70.20;;;;;;5053422;28;20037;-64
2023/12/29 00:14:16;;;;;;;10.77;1.95;;;13.00;70.10;;;;;;5053040;28;20037;-64
2023/12/29 00:16:42;;;;;;;6.65;1.58;;;13.00;70.10;;;;;;5051312;28;20127;-64
2023/12/29 00:19:08;;;;;;;7.78;1.92;;;13.00;70.10;;;;;;5054048;28;20068;-64
2023/12/29 00:21:33;;;;;;;7.50;2.25;;;13.00;70.10;;;;;;5056582;28;20064;-64
2023/12/29 00:23:59;;;;;;;9.32;2.30;;;13.10;70.10;;;;;;5055718;28;20024;-64
2023/12/29 00:26:25;;;;;;;6.68;1.83;;;13.00;70.10;;;;;;5056578;28;20090;-64
2023/12/29 00:28:57;;;;;;;9.48;2.38;;;13.00;70.10;;;;;;5056458;28;20472;-64
2023/12/29 00:31:23;;;;;;;7.35;1.85;;;13.00;70.10;;;;;;5070810;28;20112;-64
2023/12/29 00:33:52;;;;;;;5.50;1.55;;;13.00;70.20;;;;;;5064976;28;20051;-64
2023/12/29 00:36:19;;;;;;;7.13;1.80;;;13.00;70.60;;;;;;5054467;28;20025;-64
2023/12/29 00:38:45;;;;;;;7.35;1.70;;;13.00;70.90;;;;;;5051754;28;20525;-64
2023/12/29 00:41:11;;;;;;;9.73;2.30;;;13.00;71.20;;;;;;5056532;28;20096;-64
2023/12/29 00:43:37;;;;;;;8.95;2.00;;;13.00;71.40;;;;;;5056409;28;20474;-64
2023/12/29 00:46:04;;;;;;;8.48;2.33;;;13.00;71.50;;;;;;5033077;28;20405;-64
2023/12/29 00:48:30;;;;;;;8.32;1.80;;;12.90;71.60;;;;;;5055862;28;20057;-64
2023/12/29 00:50:56;;;;;;;5.05;1.45;;;12.90;71.60;;;;;;5054777;28;20062;-64
2023/12/29 00:53:22;;;;;;;5.65;1.52;;;13.00;71.70;;;;;;5056462;28;20114;-64
2023/12/29 00:55:48;;;;;;;6.93;1.95;;;12.90;71.60;;;;;;5055062;28;20029;-64
2023/12/29 00:58:14;;;;;;;7.78;2.10;;;13.00;71.50;;;;;;5056079;28;20120;-64
2023/12/29 01:00:39;;;;;;;6.10;1.75;;;13.00;71.40;;;;;;5054633;28;20060;-64
2023/12/29 01:03:05;;;;;;;8.40;1.85;;;12.90;71.30;;;;;;5054959;28;20075;-64
2023/12/29 01:05:31;;;;;;;6.63;1.88;;;12.90;71.30;;;;;;5055042;28;20075;-64
2023/12/29 01:07:57;;;;;;;7.68;2.20;;;12.90;71.30;;;;;;5055974;28;20025;-64
2023/12/29 01:10:23;;;;;;;4.95;1.33;;;12.90;71.30;;;;;;5054597;28;20473;-63
2023/12/29 01:12:48;;;;;;;7.18;1.80;;;12.90;71.30;;;;;;5054928;28;20081;-64
2023/12/29 01:15:14;;;;;;;7.03;1.70;;;13.00;71.30;;;;;;5053873;28;20039;-64
2023/12/29 01:17:40;;;;;;;7.40;1.80;;;12.90;71.30;;;;;;5051544;28;20025;-64
2023/12/29 01:20:06;;;;;;;6.78;1.67;;;13.00;71.30;;;;;;5055501;28;20063;-64
2023/12/29 01:22:32;;;;;;;7.22;1.90;;;13.00;71.30;;;;;;5054520;28;20037;-64
2023/12/29 01:25:01;;;;;;;6.43;1.70;;;13.00;71.40;;;;;;5054774;28;20032;-64
2023/12/29 01:27:27;;;;;;;6.63;1.67;;;13.00;71.40;;;;;;5054670;28;20060;-64
2023/12/29 01:29:53;;;;;;;10.15;2.10;;;13.00;71.40;;;;;;5053399;28;20021;-64
2023/12/29 01:32:19;;;;;;;6.38;1.60;;;13.00;71.60;;;;;;5055408;28;20028;-63
2023/12/29 01:34:45;;;;;;;6.35;1.70;;;12.90;71.70;;;;;;5049757;28;20025;-64
2023/12/29 01:37:11;;;;;;;7.30;1.85;;;12.90;71.90;;;;;;5055410;28;20400;-64
2023/12/29 01:39:36;;;;;;;7.50;2.15;;;12.90;72.00;;;;;;5053949;28;20028;-64
2023/12/29 01:42:02;;;;;;;6.90;1.73;;;12.90;72.10;;;;;;5055132;28;20471;-63
2023/12/29 01:44:28;;;;;;;8.07;2.08;;;12.80;72.10;;;;;;5055101;28;20437;-64
2023/12/29 01:46:58;;;;;;;9.85;2.10;;;12.80;72.20;;;;;;5053243;28;20029;-63
2023/12/29 01:49:24;;;;;;;6.78;2.05;;;12.80;72.40;;;;;;5041828;28;20037;-63
2023/12/29 01:51:54;;;;;;;10.60;1.95;;;12.80;72.50;;;;;;5054508;28;20024;-64
2023/12/29 01:54:21;;;;;;;5.85;1.50;;;12.80;72.60;;;;;;5037545;28;20028;-63
2023/12/29 01:56:49;;;;;;;10.15;2.22;;;12.80;72.60;;;;;;5067569;28;20033;-63
2023/12/29 01:59:16;;;;;;;6.30;1.55;;;12.80;72.70;;;;;;5053513;28;20465;-64
2023/12/29 02:01:43;;;;;;;6.90;1.83;;;12.70;72.70;;;;;;5054390;28;20032;-64
2023/12/29 02:04:12;;;;;;;4.93;1.42;;;12.80;72.80;;;;;;5051766;28;20025;-64
2023/12/29 02:06:39;;;;;;;7.68;2.05;;;12.80;72.70;;;;;;5052270;28;20029;-64
2023/12/29 02:09:05;;;;;;;5.07;1.63;;;12.80;72.80;;;;;;5053573;28;20025;-63
2023/12/29 02:11:31;;;;;;;8.85;1.80;;;12.80;72.70;;;;;;5053804;28;20135;-63
2023/12/29 02:14:01;;;;;;;9.85;1.70;;;12.80;72.80;;;;;;5053359;28;20091;-64
2023/12/29 02:17:21;;;;;;;9.90;2.10;;;12.80;72.80;;;;;;5051203;28;20090;-63
2023/12/29 02:19:49;;;;;;;9.18;2.05;;;12.80;72.80;;;;;;5052854;28;20043;-64
2023/12/29 02:22:15;;;;;;;7.72;2.40;;;12.80;72.80;;;;;;5034771;28;20040;-63
2023/12/29 02:24:46;;;;;;;6.18;1.70;;;12.80;72.80;;;;;;5052850;28;20350;-64
2023/12/29 02:27:17;;;;;;;7.38;1.95;;;12.80;73.00;;;;;;5053553;28;20036;-64
2023/12/29 02:29:51;;;;;;;10.35;2.20;;;12.80;73.00;;;;;;5053280;28;20025;-64
2023/12/29 02:32:19;;;;;;;8.82;1.90;;;12.80;73.10;;;;;;5054332;28;20021;-63
2023/12/29 02:34:49;;;;;;;5.85;1.40;;;12.70;73.30;;;;;;5052014;28;20067;-63
2023/12/29 02:37:16;;;;;;;7.63;1.70;;;12.70;73.40;;;;;;5053611;28;20102;-64
2023/12/29 02:39:41;;;;;;;6.13;1.80;;;12.70;73.60;;;;;;5036503;28;20063;-63
2023/12/29 02:42:07;;;;;;;9.25;2.13;;;12.70;73.70;;;;;;5053757;28;20437;-63
2023/12/29 02:44:34;;;;;;;8.52;2.15;;;12.60;73.80;;;;;;5054064;28;20045;-63
2023/12/29 02:46:59;;;;;;;5.85;1.77;;;12.60;74.00;;;;;;5053664;28;20024;-64
2023/12/29 02:49:26;;;;;;;6.57;1.63;;;12.60;74.20;;;;;;5053875;28;20123;-63
2023/12/29 02:51:52;;;;;;;9.88;2.05;;;12.60;74.40;;;;;;5053738;28;20040;-63
2023/12/29 02:54:18;;;;;;;7.65;2.00;;;12.50;74.40;;;;;;5053885;28;20116;-64
2023/12/29 02:56:46;;;;;;;7.97;1.80;;;12.50;74.60;;;;;;5050693;28;20090;-63
2023/12/29 02:59:11;;;;;;;7.40;1.83;;;12.60;74.70;;;;;;5036076;28;20108;-63
2023/12/29 03:01:37;;;;;;;8.00;1.92;;;12.60;74.70;;;;;;5054008;28;20108;-64
2023/12/29 03:04:03;;;;;;;6.38;1.85;;;12.60;74.80;;;;;;5053658;28;20506;-63
2023/12/29 03:06:29;;;;;;;8.68;2.08;;;12.60;74.70;;;;;;5050678;28;20049;-63
2023/12/29 03:08:54;;;;;;;9.50;1.80;;;12.60;74.80;;;;;;5062290;28;20355;-64
2023/12/29 03:11:20;;;;;;;8.85;2.17;;;12.60;74.80;;;;;;5064872;28;20334;-63
2023/12/29 03:13:46;;;;;;;9.90;2.35;;;12.60;74.80;;;;;;5052708;28;20045;-64
2023/12/29 03:16:12;;;;;;;9.50;1.70;;;12.60;74.70;;;;;;5053998;28;20028;-63
2023/12/29 03:18:39;;;;;;;6.30;1.73;;;12.60;74.70;;;;;;5059827;28;20025;-64
2023/12/29 03:21:06;;;;;;;6.55;2.00;;;12.60;74.60;;;;;;5062955;28;20119;-64
2023/12/29 03:23:31;;;;;;;7.43;1.98;;;12.60;74.70;;;;;;5057609;28;20040;-64
2023/12/29 03:25:57;;;;;;;8.30;1.85;;;12.60;74.70;;;;;;5059109;28;20017;-64
2023/12/29 03:28:23;;;;;;;7.90;1.85;;;12.60;74.70;;;;;;5040929;28;20037;-64
2023/12/29 03:30:49;;;;;;;8.32;2.88;;;12.60;74.70;;;;;;5063737;28;20021;-63
2023/12/29 03:33:15;;;;;;;9.40;2.08;;;12.60;74.60;;;;;;5061801;28;20512;-64
2023/12/29 03:35:41;;;;;;;3.85;1.70;;;12.60;74.60;;;;;;5044943;28;20101;-63
2023/12/29 03:38:07;;;;;;;4.95;1.85;;;12.60;74.60;;;;;;5063979;28;20037;-64
2023/12/29 03:40:33;;;;;;;9.18;2.80;;;12.70;74.60;;;;;;5055349;28;20025;-63
2023/12/29 03:42:58;;;;;;;5.78;1.80;;;12.60;74.50;;;;;;5066584;28;20487;-63
2023/12/29 03:45:24;;;;;;;10.70;2.42;;;12.60;74.40;;;;;;5034760;28;20052;-64
2023/12/29 03:47:50;;;;;;;9.43;1.92;;;12.60;74.40;;;;;;5069550;28;20342;-64
2023/12/29 03:50:16;;;;;;;8.07;2.35;;;12.70;74.40;;;;;;5058692;28;20025;-64
2023/12/29 03:52:41;;;;;;;10.63;2.17;;;12.60;74.30;;;;;;5062398;28;20171;-64
2023/12/29 03:55:07;;;;;;;12.30;1.90;;;12.70;74.30;;;;;;5053149;28;20408;-63
2023/12/29 03:57:33;;;;;;;10.38;2.53;;;12.70;74.20;;;;;;5065506;28;20043;-63
2023/12/29 03:59:59;;;;;;;6.72;2.00;;;12.70;74.10;;;;;;5051087;28;20120;-63
2023/12/29 04:02:25;;;;;;;9.48;2.30;;;12.70;74.00;;;;;;5040495;28;20099;-64
2023/12/29 04:04:50;;;;;;;10.70;2.10;;;12.70;73.90;;;;;;5043565;28;20033;-63
2023/12/29 04:07:16;;;;;;;8.18;1.67;;;12.70;73.80;;;;;;5055271;28;20032;-64
2023/12/29 04:09:42;;;;;;;9.07;2.03;;;12.80;73.80;;;;;;5056700;28;20049;-63
2023/12/29 04:12:08;;;;;;;9.50;2.03;;;12.80;73.80;;;;;;5055044;28;20469;-64
2023/12/29 04:14:33;;;;;;;8.52;2.30;;;12.80;73.60;;;;;;5045137;28;20029;-63
2023/12/29 04:17:02;;;;;;;11.82;2.65;;;12.80;73.40;;;;;;5024844;28;20518;-63
2023/12/29 04:19:28;;;;;;;14.00;2.70;;;12.80;73.30;;;;;;5039774;28;20445;-63
2023/12/29 04:21:54;;;;;;;10.90;2.63;;;12.80;73.10;;;;;;5043997;28;20112;-63
2023/12/29 04:24:20;;;;;;;13.40;3.00;;;12.70;73.00;;;;;;5039294;28;20037;-63
2023/12/29 04:26:45;;;;;;;10.77;2.22;;;12.70;72.90;;;;;;5027887;28;20033;-64
2023/12/29 04:29:12;;;;;;;8.52;2.72;;;12.70;72.80;;;;;;5040977;28;20461;-63
2023/12/29 04:31:38;;;;;;;9.48;2.38;;;12.70;72.80;;;;;;5046626;28;20029;-64
2023/12/29 04:34:04;;;;;;;11.73;2.53;;;12.70;72.70;;;;;;5040881;28;20095;-64
2023/12/29 04:36:30;;;;;;;6.78;2.00;;;12.70;72.70;;;;;;5038505;28;20029;-64
2023/12/29 04:38:56;;;;;;;11.68;2.30;;;12.80;72.70;;;;;;5040551;28;20441;-64
2023/12/29 04:41:22;;;;;;;11.98;2.38;;;12.80;72.50;;;;;;5041451;28;20508;-63
2023/12/29 04:43:47;;;;;;;6.70;1.60;;;12.80;72.40;;;;;;5038933;28;20030;-63
2023/12/29 04:46:13;;;;;;;10.07;2.63;;;12.80;72.30;;;;;;5037869;28;20140;-64
2023/12/29 04:48:39;;;;;;;7.10;2.05;;;12.80;72.20;;;;;;5036864;28;20044;-64
2023/12/29 04:51:05;;;;;;;12.45;2.55;;;12.80;72.10;;;;;;5041943;28;20029;-63
2023/12/29 04:53:30;;;;;;;9.82;2.47;;;12.80;72.10;;;;;;5040109;28;20107;-63
2023/12/29 04:55:56;;;;;;;8.52;2.53;;;12.80;72.20;;;;;;5042416;28;20021;-64
2023/12/29 04:58:22;;;;;;;9.30;2.83;;;12.80;72.00;;;;;;5067315;28;20032;-64
2023/12/29 05:00:48;;;;;;;8.05;2.13;;;12.80;71.90;;;;;;5070001;28;20074;-64
2023/12/29 05:03:14;;;;;;;9.52;2.08;;;12.80;71.90;;;;;;5062249;28;20025;-63
2023/12/29 05:05:39;;;;;;;10.18;2.35;;;12.80;71.90;;;;;;5071400;28;20028;-64
2023/12/29 05:08:05;;;;;;;9.68;2.30;;;12.80;71.80;;;;;;5067262;28;20041;-64
2023/12/29 05:10:34;;;;;;;11.77;2.50;;;12.80;71.80;;;;;;5071958;28;20040;-63
2023/12/29 05:13:00;;;;;;;12.82;2.55;;;12.80;71.70;;;;;;5060601;28;20100;-63
2023/12/29 05:15:25;;;;;;;11.20;2.75;;;12.80;71.60;;;;;;5052692;28;20112;-64
2023/12/29 05:17:51;;;;;;;8.68;2.03;;;12.80;71.50;;;;;;5039313;28;20462;-63
2023/12/29 05:20:17;;;;;;;10.57;2.70;;;12.80;71.50;;;;;;5042100;28;20032;-63
2023/12/29 05:22:43;;;;;;;10.20;2.63;;;12.80;71.30;;;;;;5042554;28;20410;-63
2023/12/29 05:25:09;;;;;;;9.55;2.58;;;12.80;71.30;;;;;;5037502;28;20060;-63
2023/12/29 05:27:34;;;;;;;8.48;2.42;;;12.80;71.30;;;;;;5039177;28;20034;-63
2023/12/29 05:30:00;;;;;;;12.23;3.08;;;12.80;71.20;;;;;;5038371;28;20116;-63
2023/12/29 05:32:26;;;;;;;11.05;2.60;;;12.80;71.20;;;;;;5045179;28;20036;-64
2023/12/29 05:34:52;;;;;;;10.27;2.55;;;12.80;71.10;;;;;;5041926;28;20029;-64
2023/12/29 05:37:18;;;;;;;8.80;2.35;;;12.80;71.10;;;;;;5036006;28;20121;-63
2023/12/29 05:39:44;;;;;;;10.60;2.45;;;12.80;71.00;;;;;;5037734;28;20076;-63
2023/12/29 05:42:09;;;;;;;11.73;2.67;;;12.80;71.00;;;;;;5038877;28;20025;-63
2023/12/29 05:44:38;;;;;;;11.93;2.67;;;12.80;71.00;;;;;;5039931;28;20025;-64
2023/12/29 05:47:04;;;;;;;10.13;2.85;;;12.80;71.00;;;;;;5021353;28;20026;-63
2023/12/29 05:49:31;;;;;;;13.40;2.45;;;12.70;71.00;;;;;;5045892;28;20335;-64
2023/12/29 05:51:57;;;;;;;10.82;2.33;;;12.70;71.00;;;;;;5054594;28;20028;-64
2023/12/29 05:54:24;;;;;;;14.63;3.17;;;12.70;71.00;;;;;;5053189;28;20029;-64
2023/12/29 05:56:50;;;;;;;9.73;2.88;;;12.70;70.90;;;;;;5054820;28;20108;-64
2023/12/29 05:59:16;;;;;;;8.07;2.42;;;12.80;71.60;;;;;;5037056;28;20438;-63
2023/12/29 06:01:42;;;;;;;9.63;2.15;;;12.70;70.90;;;;;;5053960;28;20433;-63
2023/12/29 06:04:07;;;;;;;10.60;2.25;;;12.70;71.00;;;;;;5058024;28;20168;-64
2023/12/29 06:06:33;;;;;;;7.95;1.95;;;12.70;71.00;;;;;;5029240;28;20025;-64
2023/12/29 06:08:59;;;;;;;11.93;2.55;;;12.70;71.00;;;;;;5054300;28;20033;-63
2023/12/29 06:11:25;;;;;;;11.10;2.42;;;12.70;71.00;;;;;;5054024;28;20041;-64
2023/12/29 06:13:50;;;;;;;8.93;2.10;;;12.70;71.00;;;;;;5053800;28;20032;-64
2023/12/29 06:16:20;;;;;;;7.75;2.72;;;12.70;71.10;;;;;;5065249;28;20119;-64
2023/12/29 06:18:47;;;;;;;7.95;2.60;;;12.60;71.10;;;;;;5068255;28;20064;-63
2023/12/29 06:21:13;;;;;;;13.40;2.58;;;12.60;71.10;;;;;;5074704;28;20029;-64
2023/12/29 06:23:38;;;;;;;7.60;1.80;;;12.60;71.20;;;;;;5062991;28;20087;-64
2023/12/29 06:26:04;;;;;;;11.00;1.98;;;12.60;71.10;;;;;;5055243;28;20025;-63
2023/12/29 06:28:30;;;;;;;7.88;1.95;;;12.60;71.20;;;;;;5060622;28;20021;-64
2023/12/29 06:30:56;;;;;;;7.25;1.80;;;12.70;71.20;;;;;;5056458;28;20047;-63
2023/12/29 06:33:22;;;;;;;9.23;2.28;;;12.60;71.20;;;;;;5060655;28;20039;-63
2023/12/29 06:35:48;;;;;;;10.25;2.75;;;12.60;71.20;;;;;;5060424;28;20033;-64
2023/12/29 06:38:14;;;;;;;11.73;2.22;;;12.60;71.20;;;;;;5058431;28;20066;-63
2023/12/29 06:40:40;;;;;;;6.03;1.85;;;12.60;71.20;;;;;;5057185;28;20024;-64
2023/12/29 06:43:06;;;;;;;10.90;2.67;;;12.60;71.30;;;;;;5060205;28;20021;-64
2023/12/29 06:45:32;;;;;;;9.73;2.63;;;12.60;71.30;;;;;;5066175;28;20051;-63
2023/12/29 06:47:58;;;;;;;9.57;1.85;;;12.60;71.40;;;;;;5062198;28;20022;-64
2023/12/29 06:50:23;;;;;;;7.65;1.88;;;12.60;71.60;;;;;;5057539;28;20115;-64
2023/12/29 06:52:49;;;;;;;11.10;2.33;;;12.60;71.60;;;;;;5042744;28;20214;-65
2023/12/29 06:55:15;;;;;;;8.73;2.10;;;12.60;71.70;;;;;;5039512;28;20048;-65
2023/12/29 06:57:41;;;;;;;8.90;2.20;;;12.60;71.70;;;;;;5058799;28;20028;-66
2023/12/29 07:00:07;;;;;;;8.50;1.98;;;12.60;71.70;;;;;;5054844;28;20098;-65
2023/12/29 07:02:33;;;;;;;12.52;2.50;;;12.70;71.80;;;;;;5072169;28;20027;-65
2023/12/29 07:04:58;;;;;;;8.25;2.00;;;12.70;71.90;;;;;;5059761;28;20033;-65
2023/12/29 07:07:25;;;;;;;8.10;2.35;;;12.60;71.90;;;;;;5058962;28;20117;-65
2023/12/29 07:09:50;;;;;;;9.23;1.75;;;12.70;72.10;;;;;;5068911;28;20453;-64
2023/12/29 07:12:16;;;;;;;9.82;1.80;;;12.60;72.30;;;;;;5067591;28;20028;-64
2023/12/29 07:14:42;;;;;;;9.40;2.25;;;12.60;72.60;;;;;;5064194;28;20060;-64
2023/12/29 07:17:08;;;;;;;7.35;1.88;;;12.60;72.90;;;;;;5074266;28;20060;-65
2023/12/29 07:19:36;;;;;;;11.77;1.90;;;12.50;73.10;;;;;;5050037;28;20032;-64
2023/12/29 07:22:05;;;;;;;5.63;1.60;;;12.50;73.30;;;;;;5055343;28;20048;-64
2023/12/29 07:24:32;;;;;;;6.25;1.30;;;12.50;73.50;;;;;;5049270;28;20033;-64
2023/12/29 07:26:58;;;;;;;7.97;2.03;;;12.50;73.80;;;;;;5056236;28;20025;-65
2023/12/29 07:29:24;;;;;;;7.75;1.65;;;12.40;73.90;;;;;;5060298;28;20054;-65
2023/12/29 07:31:50;;;;;;;5.78;1.50;;;12.40;74.10;;;;;;5058493;28;20458;-65
2023/12/29 07:34:16;;;;;;;7.65;1.73;;;12.40;74.40;;;;;;5050148;28;20043;-65
2023/12/29 07:36:42;;;;;;;8.98;2.03;;;12.40;74.60;;;;;;5048146;28;20059;-64
2023/12/29 07:39:09;;;;;;;6.70;1.67;;;12.30;74.80;;;;;;5063672;28;20025;-64
2023/12/29 07:41:40;;;;;;;9.95;2.15;;;12.30;75.00;;;;;;5057173;28;20025;-64
2023/12/29 07:44:06;;;;;;;;;;;12.30;75.90;;;;;;5058383;28;20036;-64
2023/12/29 07:46:32;;;;;;;5.85;1.50;;;12.30;75.20;;;;;;5055391;28;19916;-64
2023/12/29 07:48:58;;;;;;;9.20;1.95;;;12.20;75.30;;;;;;5054099;28;20127;-65
2023/12/29 07:51:23;;;;;;;9.20;1.80;;;12.30;75.50;;;;;;5054787;28;20067;-65
2023/12/29 07:53:49;;;;;;;8.60;2.33;;;12.30;75.60;;;;;;5036710;28;20029;-66
2023/12/29 07:56:15;;;;;;;7.13;1.92;;;12.30;75.80;;;;;;5055280;28;20044;-65
2023/12/29 07:58:41;;;;;;;7.90;1.95;;;12.30;76.10;;;;;;5055724;28;20331;-64
2023/12/29 08:01:07;;;;;;;7.07;2.13;;;12.30;76.20;;;;;;5055558;28;20025;-65
2023/12/29 08:03:32;;;;;;;7.55;1.95;;;12.30;76.30;;;;;;5055881;28;20449;-65
2023/12/29 08:05:58;;;;;;;6.47;2.22;;;12.30;76.40;;;;;;5053368;28;20409;-65
2023/12/29 08:08:24;;;;;;;7.10;1.75;;;12.30;76.50;;;;;;5058063;28;20033;-65
2023/12/29 08:10:50;;;;;;;6.38;1.73;;;12.30;76.50;;;;;;5058615;28;20024;-66
2023/12/29 08:13:15;;;;;;;7.50;2.15;;;12.30;76.70;;;;;;5051125;28;20033;-66
2023/12/29 08:15:42;;;;;;;9.40;2.17;;;12.30;76.80;;;;;;5058296;28;20112;-65
2023/12/29 08:18:09;;;;;;;7.15;2.05;;;12.30;76.90;;;;;;5069286;28;20087;-65
2023/12/29 08:20:35;;;;;;;7.82;1.83;;;12.30;77.00;;;;;;5060817;28;20079;-66
2023/12/29 08:23:02;;;;;;;8.60;1.98;;;12.30;77.10;;;;;;5055277;28;20024;-65
2023/12/29 08:25:29;;;;;;;6.15;1.80;;;12.30;77.20;;;;;;5059189;28;20035;-65
2023/12/29 08:27:56;;;;;;;7.18;2.00;;;12.30;77.90;;;;;;5054458;28;20017;-66
2023/12/29 08:30:22;;;;;;;4.75;1.60;;;12.30;77.30;;;;;;5059518;28;20028;-66
2023/12/29 08:32:47;;;;;;;8.23;1.95;;;12.30;77.30;;;;;;5040687;28;20032;-65
2023/12/29 08:35:13;;;;;;;6.38;1.65;;;12.30;77.30;;;;;;5036004;28;20046;-65
2023/12/29 08:37:39;;;;;;;6.55;1.98;;;12.30;77.30;;;;;;5061389;28;20018;-66
2023/12/29 08:40:06;;;;;;;5.25;1.77;;;12.40;77.30;;;;;;5066114;28;20368;-66
2023/12/29 08:42:32;;;;;;;8.07;2.05;;;12.40;77.20;;;;;;5062302;28;20025;-66
2023/12/29 08:44:59;;;;;;;4.38;1.73;;;12.40;77.20;;;;;;5063307;28;20075;-66
2023/12/29 08:47:26;;;;;;;7.63;1.83;;;12.40;77.20;;;;;;5049744;28;20401;-66
2023/12/29 08:49:54;;;;;;;6.85;1.83;;;12.40;77.20;;;;;;5057067;28;20037;-66
2023/12/29 08:52:20;;;;;;;5.85;1.85;;;12.40;77.20;;;;;;5055770;28;20029;-66
2023/12/29 08:54:46;;;;;;;6.55;1.60;;;12.40;77.20;;;;;;5058945;28;20121;-66
2023/12/29 08:57:12;;;;;;;6.18;1.80;;;12.40;77.10;;;;;;5056189;28;20428;-66
2023/12/29 08:59:38;;;;;;;5.10;1.50;;;12.40;77.10;;;;;;5062685;28;20036;-66
2023/12/29 09:02:03;;;;;;;5.82;1.40;;;12.40;77.10;;;;;;5062315;28;20024;-66
2023/12/29 09:04:29;;;;;;;4.20;1.45;;;12.40;77.10;;;;;;5060027;28;20478;-67
2023/12/29 09:06:55;;;;;;;7.88;2.08;;;12.40;77.00;;;;;;5064836;28;20505;-65
2023/12/29 09:09:21;;;;;;;6.38;1.58;;;12.40;77.00;;;;;;5063375;28;20028;-66
2023/12/29 09:11:47;;;;;;;4.32;1.60;;;12.40;76.90;;;;;;5064071;28;20116;-66
2023/12/29 09:14:13;;;;;;;5.47;1.70;;;12.40;77.00;;;;;;5057981;28;20033;-67
2023/12/29 09:16:40;;;;;;;4.18;1.40;;;12.50;77.10;;;;;;5073962;28;20021;-66
2023/12/29 09:19:05;;;;;;;6.60;1.35;;;12.40;77.00;;;;;;5056686;28;20036;-65
2023/12/29 09:21:31;;;;;;;8.13;1.83;;;12.50;77.00;;;;;;5053434;28;20035;-64
2023/12/29 09:23:58;;;;;;;3.78;1.42;;;12.40;76.90;;;;;;5064087;28;20036;-64
2023/12/29 09:26:24;;;;;;;4.82;1.40;;;12.50;76.90;;;;;;5076016;28;20036;-64
2023/12/29 09:28:50;;;;;;;3.88;1.10;;;12.50;76.90;;;;;;5072000;28;20033;-64
2023/12/29 09:31:15;;;;;;;4.57;1.48;;;12.50;76.80;;;;;;5067008;28;20032;-64
2023/12/29 09:33:41;;;;;;;4.68;1.60;;;12.50;76.70;;;;;;5076112;28;20036;-64
2023/12/29 09:36:07;;;;;;;5.22;1.50;;;12.50;76.70;;;;;;5068768;28;20029;-64
2023/12/29 09:38:33;;;;;;;4.85;1.50;;;12.50;76.60;;;;;;5072102;28;20035;-64
2023/12/29 09:41:04;;;;;;;4.13;1.23;;;12.50;76.60;;;;;;5075797;28;20044;-64
2023/12/29 09:43:31;;;;;;;4.80;1.40;;;12.60;76.60;;;;;;5075273;28;20086;-64
2023/12/29 09:45:58;;;;;;;5.00;1.27;;;12.50;76.50;;;;;;5069280;28;20045;-64
2023/12/29 09:48:26;;;;;;;4.60;1.25;;;12.50;76.50;;;;;;5068576;28;20028;-64
2023/12/29 09:50:53;;;;;;;4.03;1.40;;;12.50;76.50;;;;;;5075243;28;20448;-64
2023/12/29 09:53:21;;;;;;;5.07;1.33;;;12.50;76.40;;;;;;5075632;28;20024;-64
2023/12/29 09:55:49;;;;;;;5.15;1.33;;;12.60;76.50;;;;;;5072589;28;20044;-64
2023/12/29 09:58:17;;;;;;;5.07;1.35;;;12.60;76.40;;;;;;5066199;28;20123;-64
2023/12/29 10:00:46;;;;;;;4.30;1.40;;;12.60;76.30;;;;;;5075230;28;20111;-64
2023/12/29 10:03:12;;;;;;;6.22;1.75;;;12.60;76.30;;;;;;5075595;28;20104;-64
2023/12/29 10:05:37;;;;;;;4.60;1.23;;;12.70;76.20;;;;;;5073198;28;20222;-64
2023/12/29 10:08:08;;;;;;;6.10;1.70;;;12.70;76.10;;;;;;5049184;28;20063;-64
2023/12/29 10:10:36;;;;;;;6.22;1.58;;;12.70;76.00;;;;;;5075104;28;20020;-64
2023/12/29 10:13:03;;;;;;;4.85;1.60;;;12.70;76.00;;;;;;5075200;28;20028;-64
2023/12/29 10:15:39;;;;;;;2.90;1.52;;;12.80;76.00;;;;;;5073884;28;20028;-64
2023/12/29 10:18:24;;;;;;;3.58;1.17;;;12.80;75.90;;;;;;5070243;28;20075;-64
2023/12/29 10:21:11;;;;;;;3.65;1.58;;;12.80;75.90;;;;;;5074105;28;20039;-64
2023/12/29 10:23:58;;;;;;;4.18;1.40;;;12.80;75.80;;;;;;5074938;28;20366;-64
2023/12/29 10:26:25;;;;;;;3.63;1.25;;;12.90;75.70;;;;;;5068475;28;20025;-65
2023/12/29 10:28:51;;;;;;;2.92;1.30;;;12.90;75.60;;;;;;5060040;28;20468;-65
2023/12/29 10:31:17;;;;;;;5.45;1.58;;;12.90;75.60;;;;;;5071210;28;20044;-66
2023/12/29 10:33:43;;;;;;;3.60;1.40;;;12.90;75.60;;;;;;5059924;28;20033;-64
2023/12/29 10:36:10;;;;;;;6.93;1.50;;;12.90;75.60;;;;;;5069215;28;20037;-65
2023/12/29 10:38:41;;;;;;;4.05;1.30;;;12.90;75.60;;;;;;5067921;28;20041;-65
2023/12/29 10:41:14;;;;;;;;;;;12.90;75.70;;;;;;5055670;28;20029;-66
2023/12/29 10:43:41;;;;;;;3.55;1.20;;;12.90;75.70;;;;;;5055271;28;19917;-67
2023/12/29 10:46:10;;;;;;;3.45;1.10;;;12.90;75.60;;;;;;5060790;28;20468;-66
2023/12/29 10:48:37;;;;;;;4.38;1.50;;;12.90;75.60;;;;;;5055866;28;20072;-66
2023/12/29 10:51:04;;;;;;;4.88;1.20;;;13.00;75.60;;;;;;5056571;28;20093;-65
2023/12/29 10:53:36;;;;;;;2.67;1.25;;;13.00;75.50;;;;;;5057812;28;20041;-65
2023/12/29 10:56:03;;;;;;;3.53;1.30;;;13.10;75.50;;;;;;5046845;28;20431;-67
2023/12/29 10:58:29;;;;;;;4.20;1.38;;;13.10;75.30;;;;;;5056816;28;20021;-66
2023/12/29 11:01:03;;;;;;;5.28;1.65;;;13.10;75.30;;;;;;5057103;28;20033;-66
2023/12/29 11:03:29;;;;;;;3.13;1.30;;;13.30;75.20;;;;;;5051779;28;20053;-66
2023/12/29 11:06:02;;;;;;;3.35;1.17;;;13.30;75.00;;;;;;5053728;28;20593;-65
2023/12/29 11:08:28;;;;;;;3.25;1.20;;;13.40;74.80;;;;;;5050423;28;20368;-66
2023/12/29 11:10:54;;;;;;;5.68;1.40;;;13.40;74.70;;;;;;5051548;28;20123;-66
2023/12/29 11:13:21;;;;;;;4.72;1.30;;;13.40;74.70;;;;;;5050731;28;20033;-65
2023/12/29 11:15:47;;;;;;;4.70;1.48;;;13.40;75.30;;;;;;5052042;28;20035;-66
2023/12/29 11:18:15;;;;;;;2.63;1.02;;;13.30;74.60;;;;;;5049377;28;20079;-66
2023/12/29 11:20:46;;;;;;;3.88;1.50;;;13.30;74.70;;;;;;5050026;28;20517;-65
2023/12/29 11:23:15;;;;;;;5.90;1.50;;;13.30;74.80;;;;;;5047788;28;20021;-66
2023/12/29 11:25:45;;;;;;;4.45;1.20;;;13.30;74.60;;;;;;5052066;28;20036;-66
2023/12/29 11:28:12;;;;;;;4.63;1.75;;;13.40;74.60;;;;;;5049540;28;20029;-66
2023/12/29 11:30:39;;;;;;;4.20;2.00;;;13.40;74.40;;;;;;5053494;28;20029;-67
2023/12/29 11:33:20;;;;;;;4.35;1.40;;;13.40;74.20;;;;;;5054463;28;20033;-66
2023/12/29 11:36:17;;;;;;;2.05;1.20;;;13.50;74.00;;;;;;5047961;28;20071;-66
2023/12/29 11:38:48;;;;;;;3.50;1.38;;;13.50;73.80;;;;;;5070096;28;20379;-66
2023/12/29 11:41:20;;;;;;;5.90;1.60;;;13.50;73.80;;;;;;5065009;28;20099;-66
2023/12/29 11:43:57;;;;;;;3.88;1.30;;;13.50;73.60;;;;;;5070265;28;20342;-66
2023/12/29 11:46:41;;;;;;;9.40;1.77;;;13.50;73.40;;;;;;5064958;28;20408;-66
2023/12/29 11:49:07;;;;;;;6.47;1.65;;;13.50;73.30;;;;;;5070838;28;20024;-66
2023/12/29 11:51:43;;;;;;;6.50;1.50;;;13.50;73.30;;;;;;5062501;28;20024;-66
2023/12/29 11:54:09;;;;;;;5.50;1.70;;;13.50;73.10;;;;;;5073182;28;20338;-66
2023/12/29 11:56:43;;;;;;;5.03;1.35;;;13.50;73.10;;;;;;5074223;28;20123;-66
2023/12/29 11:59:18;;;;;;;5.38;1.67;;;13.50;73.00;;;;;;5069541;28;20348;-66
2023/12/29 12:01:47;;;;;;;4.47;1.60;;;13.50;72.90;;;;;;5056141;28;20087;-66
2023/12/29 12:04:42;;;;;;;5.22;1.75;;;13.50;72.90;;;;;;5074030;28;20108;-66
2023/12/29 12:07:40;;;;;;;4.40;1.27;;;13.50;72.70;;;;;;5072920;28;20035;-66
2023/12/29 12:10:29;;;;;;;4.00;1.83;;;13.50;72.70;;;;;;5051124;28;20029;-66
2023/12/29 12:12:56;;;;;;;4.85;1.60;;;13.50;72.70;;;;;;5073746;28;20028;-66
2023/12/29 12:15:28;;;;;;;6.32;1.50;;;13.50;72.70;;;;;;5074837;28;20032;-66
2023/12/29 12:17:54;;;;;;;7.93;1.98;;;13.50;72.70;;;;;;5076391;28;20039;-66
2023/12/29 12:20:22;;;;;;;4.72;1.50;;;13.50;72.70;;;;;;5065713;28;20025;-66
2023/12/29 12:22:57;;;;;;;5.40;1.30;;;13.50;72.60;;;;;;5077309;28;20030;-66
2023/12/29 12:25:30;;;;;;;4.97;1.63;;;13.50;72.60;;;;;;5063549;28;20035;-66
2023/12/29 12:27:58;;;;;;;6.07;1.40;;;13.50;72.60;;;;;;5077399;28;20464;-66
2023/12/29 12:30:24;;;;;;;3.10;1.13;;;13.50;72.60;;;;;;5063498;28;20036;-66
2023/12/29 12:33:00;;;;;;;7.47;2.17;;;13.50;72.60;;;;;;5076534;28;20066;-66
2023/12/29 12:35:26;;;;;;;6.95;1.70;;;13.60;72.50;;;;;;5077448;28;20028;-67
2023/12/29 12:38:11;;;;;;;9.45;1.73;;;13.50;72.50;;;;;;5077023;28;20111;-67
2023/12/29 12:40:38;;;;;;;9.02;1.27;;;13.60;72.50;;;;;;5045685;28;20025;-67
2023/12/29 12:43:04;;;;;;;7.45;1.60;;;13.50;72.50;;;;;;5076288;28;20083;-67
2023/12/29 12:45:34;;;;;;;5.13;1.23;;;13.50;72.60;;;;;;5075544;28;20360;-67
2023/12/29 12:48:09;;;;;;;7.47;1.65;;;13.50;72.50;;;;;;5076254;28;20052;-67